createdAt,value
2023-03-17T00:01:51.460Z,3.17
2023-03-17T00:04:21.407Z,2.20
2023-03-17T00:06:48.637Z,2.65
2023-03-17T00:09:17.042Z,2.47
2023-03-17T00:11:44.360Z,3.15
2023-03-17T00:14:11.136Z,3.00
2023-03-17T00:16:39.102Z,2.55
2023-03-17T00:19:06.139Z,2.47
2023-03-17T00:21:34.186Z,2.30
2023-03-17T00:24:02.298Z,2.83
2023-03-17T00:26:29.050Z,3.58
2023-03-17T00:28:55.875Z,2.78
2023-03-17T00:31:27.257Z,2.63
2023-03-17T00:33:54.165Z,4.82
2023-03-17T00:36:25.959Z,2.47
2023-03-17T00:38:52.820Z,2.25
2023-03-17T00:41:19.887Z,3.70
2023-03-17T00:43:46.597Z,2.67
2023-03-17T00:46:18.489Z,3.08
2023-03-17T00:48:45.860Z,3.00
2023-03-17T00:51:12.863Z,3.08
2023-03-17T00:53:39.856Z,4.63
2023-03-17T00:56:14.552Z,3.45
2023-03-17T00:58:41.246Z,3.72
2023-03-17T01:01:08.697Z,2.50
2023-03-17T01:03:35.561Z,3.22
2023-03-17T01:06:02.969Z,2.22
2023-03-17T01:08:30.361Z,3.45
2023-03-17T01:10:57.357Z,3.05
2023-03-17T01:13:24.540Z,2.95
2023-03-17T01:15:51.994Z,2.85
2023-03-17T01:18:20.482Z,4.15
2023-03-17T01:20:48.515Z,2.42
2023-03-17T01:23:15.202Z,2.65
2023-03-17T01:25:42.773Z,3.00
2023-03-17T01:28:14.152Z,2.90
2023-03-17T01:30:41.117Z,3.47
2023-03-17T01:33:09.392Z,3.08
2023-03-17T01:35:36.868Z,2.95
2023-03-17T01:38:03.919Z,3.47
2023-03-17T01:40:33.248Z,3.17
2023-03-17T01:43:13.413Z,3.90
2023-03-17T01:46:14.708Z,3.15
2023-03-17T01:49:01.156Z,3.25
2023-03-17T01:51:38.878Z,3.40
2023-03-17T01:54:11.471Z,3.25
2023-03-17T01:56:38.225Z,3.95
2023-03-17T01:59:05.767Z,3.75
2023-03-17T02:01:35.506Z,3.45
2023-03-17T02:04:02.618Z,3.28
2023-03-17T02:06:29.512Z,3.90
2023-03-17T02:08:56.584Z,3.78
2023-03-17T02:11:23.917Z,6.00
2023-03-17T02:13:50.678Z,3.42
2023-03-17T02:16:17.702Z,3.97
2023-03-17T02:18:45.131Z,3.85
2023-03-17T02:21:33.056Z,3.03
2023-03-17T02:24:05.344Z,3.65
2023-03-17T02:26:33.354Z,3.85
2023-03-17T02:29:00.168Z,3.80
2023-03-17T02:31:27.007Z,2.92
2023-03-17T02:33:53.857Z,3.50
2023-03-17T02:36:21.951Z,3.88
2023-03-17T02:38:48.876Z,3.38
2023-03-17T02:41:15.641Z,4.38
2023-03-17T02:43:42.846Z,4.03
2023-03-17T02:46:09.645Z,3.47
2023-03-17T02:48:36.762Z,4.55
2023-03-17T02:51:03.931Z,3.28
2023-03-17T02:53:31.186Z,3.28
2023-03-17T02:55:58.214Z,3.25
2023-03-17T02:58:24.993Z,3.00
2023-03-17T03:00:51.671Z,3.35
2023-03-17T03:03:18.394Z,4.25
2023-03-17T03:05:45.482Z,2.88
2023-03-17T03:08:12.246Z,3.40
2023-03-17T03:10:38.939Z,3.00
2023-03-17T03:13:05.643Z,3.45
2023-03-17T03:15:32.373Z,2.80
2023-03-17T03:17:59.062Z,3.63
2023-03-17T03:20:25.782Z,2.78
2023-03-17T03:22:52.547Z,3.42
2023-03-17T03:25:19.296Z,3.50
2023-03-17T03:27:46.138Z,3.13
2023-03-17T03:30:13.050Z,3.65
2023-03-17T03:32:40.053Z,4.63
2023-03-17T03:35:07.030Z,4.00
2023-03-17T03:37:33.726Z,4.32
2023-03-17T03:40:00.461Z,4.80
2023-03-17T03:42:27.258Z,4.03
2023-03-17T03:44:53.942Z,4.40
2023-03-17T03:47:20.667Z,4.28
2023-03-17T03:49:47.370Z,4.82
2023-03-17T03:52:14.163Z,4.35
2023-03-17T03:54:40.814Z,5.68
2023-03-17T03:57:07.939Z,3.88
2023-03-17T03:59:34.601Z,4.18
2023-03-17T04:02:01.323Z,4.60
2023-03-17T04:04:28.064Z,4.75
2023-03-17T04:06:54.790Z,4.40
2023-03-17T04:09:21.468Z,4.18
2023-03-17T04:11:48.143Z,4.63
2023-03-17T04:14:14.950Z,4.63
2023-03-17T04:16:43.353Z,4.22
2023-03-17T04:19:11.132Z,3.97
2023-03-17T04:21:38.006Z,4.63
2023-03-17T04:24:05.195Z,4.47
2023-03-17T04:26:32.383Z,4.32
2023-03-17T04:28:59.033Z,4.10
2023-03-17T04:31:25.879Z,4.40
2023-03-17T04:33:52.713Z,3.88
2023-03-17T04:36:23.178Z,4.93
2023-03-17T04:38:50.012Z,3.45
2023-03-17T04:41:16.757Z,3.72
2023-03-17T04:43:43.483Z,3.42
2023-03-17T04:46:10.941Z,4.43
2023-03-17T04:48:37.854Z,3.60
2023-03-17T04:51:04.752Z,3.58
2023-03-17T04:53:31.628Z,4.03
2023-03-17T04:55:58.299Z,2.80
2023-03-17T04:58:30.868Z,3.03
2023-03-17T05:00:58.428Z,2.67
2023-03-17T05:03:27.714Z,2.67
2023-03-17T05:05:54.664Z,3.92
2023-03-17T05:08:21.428Z,2.80
2023-03-17T05:10:48.094Z,3.25
2023-03-17T05:13:15.923Z,2.78
2023-03-17T05:15:52.641Z,2.97
2023-03-17T05:18:19.894Z,3.65
2023-03-17T05:20:46.933Z,4.10
2023-03-17T05:23:13.665Z,3.42
2023-03-17T05:25:41.644Z,3.35
2023-03-17T05:28:08.603Z,4.47
2023-03-17T05:30:36.700Z,4.32
2023-03-17T05:33:03.854Z,4.40
2023-03-17T05:35:30.642Z,4.95
2023-03-17T05:37:57.409Z,5.45
2023-03-17T05:40:24.217Z,5.55
2023-03-17T05:42:51.543Z,5.10
2023-03-17T05:45:18.710Z,6.32
2023-03-17T05:47:45.754Z,5.07
2023-03-17T05:50:12.826Z,6.22
2023-03-17T05:52:39.594Z,6.65
2023-03-17T05:55:07.829Z,6.18
2023-03-17T05:57:34.796Z,7.10
2023-03-17T06:00:05.274Z,6.45
2023-03-17T06:02:32.495Z,6.07
2023-03-17T06:04:59.206Z,6.13
2023-03-17T06:07:27.523Z,6.60
2023-03-17T06:09:55.849Z,7.22
2023-03-17T06:12:22.600Z,7.68
2023-03-17T06:14:49.284Z,8.13
2023-03-17T06:17:15.974Z,7.10
2023-03-17T06:19:42.824Z,7.20
2023-03-17T06:22:09.889Z,8.00
2023-03-17T06:24:36.761Z,7.78
2023-03-17T06:27:03.523Z,7.60
2023-03-17T06:29:30.709Z,7.38
2023-03-17T06:32:01.463Z,6.20
2023-03-17T06:34:36.266Z,7.55
2023-03-17T06:37:03.060Z,5.93
2023-03-17T06:39:30.243Z,6.85
2023-03-17T06:41:57.159Z,6.82
2023-03-17T06:44:23.874Z,8.45
2023-03-17T06:46:51.101Z,7.80
2023-03-17T06:49:17.825Z,7.03
2023-03-17T06:51:44.506Z,6.47
2023-03-17T06:54:12.287Z,6.50
2023-03-17T06:56:39.049Z,6.30
2023-03-17T06:59:05.772Z,6.13
2023-03-17T07:01:32.507Z,5.55
2023-03-17T07:03:59.515Z,7.15
2023-03-17T07:06:26.324Z,6.38
2023-03-17T07:08:53.088Z,6.80
2023-03-17T07:11:19.845Z,7.70
2023-03-17T07:13:46.942Z,6.78
2023-03-17T07:16:14.031Z,6.93
2023-03-17T07:18:40.823Z,6.40
2023-03-17T07:21:08.142Z,5.80
2023-03-17T07:23:35.008Z,6.68
2023-03-17T07:26:02.482Z,6.53
2023-03-17T07:28:29.196Z,6.45
2023-03-17T07:30:57.898Z,7.00
2023-03-17T07:33:25.162Z,6.88
2023-03-17T07:35:52.374Z,5.57
2023-03-17T07:38:19.228Z,6.00
2023-03-17T07:40:48.058Z,6.70
2023-03-17T07:43:16.006Z,6.00
2023-03-17T07:45:43.855Z,6.35
2023-03-17T07:48:10.968Z,6.20
2023-03-17T07:50:37.780Z,6.78
2023-03-17T07:53:04.697Z,5.88
2023-03-17T07:55:32.775Z,6.18
2023-03-17T07:57:59.898Z,5.13
2023-03-17T08:00:27.791Z,4.72
2023-03-17T08:03:08.983Z,5.38
2023-03-17T08:05:36.968Z,5.95
2023-03-17T08:08:05.249Z,5.35
2023-03-17T08:10:32.668Z,4.97
2023-03-17T08:12:59.703Z,5.40
2023-03-17T08:15:26.648Z,6.38
2023-03-17T08:17:53.806Z,5.05
2023-03-17T08:20:21.878Z,4.90
2023-03-17T08:22:48.607Z,4.90
2023-03-17T08:25:15.457Z,4.78
2023-03-17T08:27:42.615Z,4.50
2023-03-17T08:30:10.277Z,4.65
2023-03-17T08:32:37.257Z,4.22
2023-03-17T08:35:06.364Z,4.55
2023-03-17T08:37:33.233Z,3.63
2023-03-17T08:40:01.058Z,3.92
2023-03-17T08:42:27.882Z,4.68
2023-03-17T08:44:54.660Z,3.67
2023-03-17T08:47:21.751Z,4.28
2023-03-17T08:49:48.530Z,3.42
2023-03-17T08:52:16.239Z,2.80
2023-03-17T08:54:43.348Z,3.05
2023-03-17T08:57:10.151Z,2.97
2023-03-17T08:59:37.190Z,3.60
2023-03-17T09:02:03.954Z,4.00
2023-03-17T09:04:30.700Z,3.35
2023-03-17T09:07:06.182Z,2.97
2023-03-17T09:09:35.227Z,2.15
2023-03-17T09:12:04.230Z,2.78
2023-03-17T09:14:40.127Z,2.90
2023-03-17T09:17:10.113Z,2.55
2023-03-17T09:19:37.158Z,2.17
2023-03-17T09:22:03.984Z,1.80
2023-03-17T09:24:30.714Z,2.40
2023-03-17T09:26:59.904Z,1.95
2023-03-17T09:29:27.278Z,1.98
2023-03-17T09:31:57.085Z,2.72
2023-03-17T09:34:25.175Z,2.13
2023-03-17T09:36:53.184Z,2.25
2023-03-17T09:39:22.396Z,2.53
2023-03-17T09:42:01.970Z,2.60
2023-03-17T09:44:43.735Z,5.70
2023-03-17T09:47:34.663Z,2.33
2023-03-17T09:50:02.586Z,2.15
2023-03-17T09:52:31.133Z,2.30
2023-03-17T09:54:58.427Z,2.38
2023-03-17T09:57:38.070Z,2.08
2023-03-17T10:00:19.175Z,2.40
2023-03-17T10:02:46.166Z,2.17
2023-03-17T10:05:21.462Z,1.75
2023-03-17T10:08:31.652Z,1.48
2023-03-17T10:11:18.503Z,1.20
2023-03-17T10:13:57.861Z,1.27
2023-03-17T10:16:30.955Z,1.50
2023-03-17T10:19:01.048Z,1.10
2023-03-17T10:21:29.918Z,1.17
2023-03-17T10:23:57.909Z,1.35
2023-03-17T10:26:31.250Z,1.55
2023-03-17T10:28:59.707Z,1.70
2023-03-17T10:31:34.600Z,1.65
2023-03-17T10:34:30.249Z,1.23
2023-03-17T10:37:01.951Z,1.60
2023-03-17T10:39:32.516Z,0.90
2023-03-17T10:42:03.566Z,1.40
2023-03-17T10:44:39.520Z,1.33
2023-03-17T10:47:06.648Z,1.55
2023-03-17T10:49:36.946Z,1.33
2023-03-17T10:52:08.011Z,1.08
2023-03-17T10:54:36.015Z,0.90
2023-03-17T10:57:07.166Z,1.05
2023-03-17T10:59:39.504Z,1.67
2023-03-17T11:02:36.973Z,1.20
2023-03-17T11:05:06.193Z,1.40
2023-03-17T11:07:38.723Z,2.15
2023-03-17T11:10:23.908Z,2.20
2023-03-17T11:12:58.801Z,1.75
2023-03-17T11:15:25.811Z,2.60
2023-03-17T11:17:59.486Z,1.83
2023-03-17T11:20:36.145Z,2.25
2023-03-17T11:23:32.859Z,3.05
2023-03-17T11:26:31.246Z,2.30
2023-03-17T11:29:06.761Z,1.90
2023-03-17T11:31:37.196Z,2.60
2023-03-17T11:34:08.888Z,2.00
2023-03-17T11:36:58.736Z,2.10
2023-03-17T11:39:27.572Z,1.90
2023-03-17T11:42:22.410Z,2.40
2023-03-17T11:44:57.989Z,2.42
2023-03-17T11:47:28.401Z,1.88
2023-03-17T11:50:34.221Z,1.98
2023-03-17T11:53:08.468Z,2.13
2023-03-17T11:55:55.775Z,1.63
2023-03-17T11:58:37.186Z,2.38
2023-03-17T12:01:09.209Z,2.40
2023-03-17T12:03:40.327Z,2.25
2023-03-17T12:06:43.812Z,2.25
2023-03-17T12:09:24.774Z,2.58
2023-03-17T12:11:51.570Z,3.80
2023-03-17T12:14:48.735Z,2.53
2023-03-17T12:17:25.864Z,2.30
2023-03-17T12:20:07.103Z,2.97
2023-03-17T12:23:07.836Z,2.63
2023-03-17T12:25:40.452Z,3.03
2023-03-17T12:28:22.980Z,2.50
2023-03-17T12:30:57.637Z,2.28
2023-03-17T12:33:40.550Z,2.78
2023-03-17T12:36:07.827Z,2.20
2023-03-17T12:39:01.682Z,3.67
2023-03-17T12:41:53.683Z,2.15
2023-03-17T12:44:41.424Z,1.92
2023-03-17T12:47:29.660Z,2.25
2023-03-17T12:50:09.491Z,2.30
2023-03-17T12:52:42.126Z,1.70
2023-03-17T12:55:14.233Z,2.13
2023-03-17T12:57:42.904Z,2.10
2023-03-17T13:00:25.287Z,2.10
2023-03-17T13:03:07.257Z,1.67
2023-03-17T13:05:35.335Z,2.25
2023-03-17T13:08:02.732Z,2.50
2023-03-17T13:10:48.549Z,1.88
2023-03-17T13:13:30.344Z,2.50
2023-03-17T13:15:58.800Z,2.40
2023-03-17T13:18:34.830Z,2.05
2023-03-17T13:21:01.771Z,1.85
2023-03-17T13:23:41.800Z,1.83
2023-03-17T13:26:11.238Z,2.05
2023-03-17T13:28:38.134Z,2.20
2023-03-17T13:31:13.742Z,2.55
2023-03-17T13:33:45.654Z,2.13
2023-03-17T13:36:17.192Z,2.92
2023-03-17T13:38:44.516Z,2.00
2023-03-17T13:41:26.864Z,2.38
2023-03-17T13:44:12.903Z,2.00
2023-03-17T13:46:41.205Z,1.92
2023-03-17T13:49:24.160Z,1.75
2023-03-17T13:52:13.582Z,1.92
2023-03-17T13:54:51.225Z,1.58
2023-03-17T13:57:26.309Z,1.60
2023-03-17T14:00:08.342Z,2.10
2023-03-17T14:02:36.485Z,1.90
2023-03-17T14:05:06.203Z,1.60
2023-03-17T14:07:49.360Z,1.48
2023-03-17T14:10:24.279Z,1.50
2023-03-17T14:13:01.408Z,1.35
2023-03-17T14:15:33.170Z,1.45
2023-03-17T14:18:08.734Z,1.48
2023-03-17T14:20:35.646Z,1.20
2023-03-17T14:23:03.319Z,2.03
2023-03-17T14:25:37.408Z,1.50
2023-03-17T14:28:05.946Z,1.10
2023-03-17T14:30:33.298Z,1.20
2023-03-17T14:33:09.613Z,1.52
2023-03-17T14:35:39.240Z,1.20
2023-03-17T14:38:23.297Z,1.20
2023-03-17T14:43:17.242Z,1.30
2023-03-17T14:45:50.884Z,0.77
2023-03-17T14:50:57.259Z,1.30
2023-03-17T14:53:24.228Z,1.40
2023-03-17T14:55:52.120Z,1.42
2023-03-17T14:58:25.120Z,1.30
2023-03-17T15:01:02.625Z,1.10
2023-03-17T15:03:31.533Z,1.08
2023-03-17T15:06:24.493Z,1.48
2023-03-17T15:08:52.512Z,1.35
2023-03-17T15:11:39.983Z,1.13
2023-03-17T15:14:42.796Z,0.82
2023-03-17T15:17:21.118Z,0.90
2023-03-17T15:19:49.430Z,1.70
2023-03-17T15:22:34.605Z,1.50
2023-03-17T15:25:23.130Z,1.10
2023-03-17T15:27:50.438Z,1.80
2023-03-17T15:30:17.544Z,1.20
2023-03-17T15:32:44.402Z,1.50
2023-03-17T15:35:12.318Z,3.13
2023-03-17T15:37:39.068Z,1.40
2023-03-17T15:40:06.473Z,1.63
2023-03-17T15:42:34.665Z,1.33
2023-03-17T15:45:01.568Z,1.35
2023-03-17T15:47:29.752Z,1.40
2023-03-17T15:50:02.037Z,1.02
2023-03-17T15:52:28.833Z,1.73
2023-03-17T15:54:58.914Z,2.05
2023-03-17T15:57:26.230Z,1.60
2023-03-17T15:59:53.012Z,1.30
2023-03-17T16:02:32.199Z,1.27
2023-03-17T16:05:04.998Z,1.25
2023-03-17T16:07:32.244Z,2.17
2023-03-17T16:09:58.962Z,1.10
2023-03-17T16:12:25.737Z,1.48
2023-03-17T16:14:52.478Z,1.15
2023-03-17T16:17:28.860Z,1.67
2023-03-17T16:19:56.427Z,2.65
2023-03-17T16:22:40.352Z,1.65
2023-03-17T16:25:16.988Z,1.42
2023-03-17T16:27:43.696Z,1.80
2023-03-17T16:30:19.021Z,1.88
2023-03-17T16:32:45.943Z,1.92
2023-03-17T16:35:20.874Z,1.92
2023-03-17T16:37:48.107Z,1.98
2023-03-17T16:40:26.151Z,1.52
2023-03-17T16:42:52.991Z,1.58
2023-03-17T16:45:27.163Z,1.67
2023-03-17T16:47:54.607Z,1.92
2023-03-17T16:50:23.668Z,1.70
2023-03-17T16:52:50.658Z,1.60
2023-03-17T16:55:18.066Z,1.55
2023-03-17T16:57:46.382Z,1.85
2023-03-17T17:00:21.745Z,2.25
2023-03-17T17:02:49.820Z,2.30
2023-03-17T17:05:24.880Z,2.03
2023-03-17T17:07:55.055Z,1.27
2023-03-17T17:10:23.059Z,2.13
2023-03-17T17:12:50.008Z,1.60
2023-03-17T17:15:17.711Z,2.03
2023-03-17T17:17:50.326Z,1.77
2023-03-17T17:20:19.807Z,1.90
2023-03-17T17:22:46.769Z,2.70
2023-03-17T17:25:13.493Z,1.95
2023-03-17T17:27:44.356Z,1.67
2023-03-17T17:30:16.770Z,2.97
2023-03-17T17:32:45.306Z,1.65
2023-03-17T17:35:13.596Z,1.70
2023-03-17T17:37:40.667Z,1.95
2023-03-17T17:40:08.784Z,1.65
2023-03-17T17:42:36.513Z,2.80
2023-03-17T17:45:03.464Z,2.55
2023-03-17T17:47:33.015Z,1.85
2023-03-17T17:49:59.856Z,1.95
2023-03-17T17:52:26.803Z,1.98
2023-03-17T17:54:53.474Z,1.67
2023-03-17T17:57:20.242Z,1.95
2023-03-17T17:59:47.059Z,2.00
2023-03-17T18:02:13.774Z,1.90
2023-03-17T18:04:41.462Z,1.67
2023-03-17T18:07:08.230Z,1.80
2023-03-17T18:09:35.639Z,2.47
2023-03-17T18:12:02.464Z,1.58
2023-03-17T18:14:29.221Z,2.17
2023-03-17T18:16:56.215Z,2.00
2023-03-17T18:19:23.180Z,2.70
2023-03-17T18:21:49.973Z,1.75
2023-03-17T18:24:17.360Z,2.00
2023-03-17T18:26:44.099Z,1.92
2023-03-17T18:29:12.140Z,2.47
2023-03-17T18:31:47.900Z,2.67
2023-03-17T18:34:20.319Z,4.78
2023-03-17T18:36:47.959Z,3.95
2023-03-17T18:39:15.477Z,3.30
2023-03-17T18:41:42.222Z,2.72
2023-03-17T18:44:10.170Z,3.60
2023-03-17T18:46:37.704Z,3.60
2023-03-17T18:49:05.471Z,4.18
2023-03-17T18:51:32.281Z,4.70
2023-03-17T18:53:59.406Z,4.03
2023-03-17T18:56:29.112Z,5.78
2023-03-17T18:58:56.692Z,4.97
2023-03-17T19:01:23.595Z,4.25
2023-03-17T19:03:50.846Z,3.90
2023-03-17T19:06:19.698Z,4.00
2023-03-17T19:08:46.850Z,3.50
2023-03-17T19:11:15.361Z,3.30
2023-03-17T19:13:42.351Z,3.38
2023-03-17T19:16:09.318Z,2.88
2023-03-17T19:18:36.905Z,3.58
2023-03-17T19:21:03.884Z,3.28
2023-03-17T19:23:32.233Z,3.25
2023-03-17T19:25:59.359Z,4.82
2023-03-17T19:28:29.428Z,2.88
2023-03-17T19:30:57.268Z,2.55
2023-03-17T19:33:24.171Z,2.65
2023-03-17T19:35:58.564Z,3.22
2023-03-17T19:38:26.383Z,3.42
2023-03-17T19:40:59.598Z,2.92
2023-03-17T19:43:40.026Z,2.42
2023-03-17T19:46:08.145Z,2.83
2023-03-17T19:48:36.504Z,3.10
2023-03-17T19:51:03.385Z,3.53
2023-03-17T19:53:30.372Z,3.83
2023-03-17T19:55:57.337Z,3.60
2023-03-17T19:58:24.281Z,4.55
2023-03-17T20:00:51.546Z,5.05
2023-03-17T20:03:18.653Z,6.97
2023-03-17T20:05:46.405Z,4.63
2023-03-17T20:08:14.637Z,6.00
2023-03-17T20:10:41.493Z,6.53
2023-03-17T20:13:08.363Z,5.63
2023-03-17T20:15:35.504Z,6.10
2023-03-17T20:18:02.743Z,6.35
2023-03-17T20:20:57.944Z,6.20
2023-03-17T20:23:27.784Z,6.60
2023-03-17T20:26:02.239Z,7.65
2023-03-17T20:28:30.143Z,7.22
2023-03-17T20:31:00.480Z,6.45
2023-03-17T20:33:27.747Z,7.43
2023-03-17T20:35:54.560Z,5.82
2023-03-17T20:38:22.412Z,6.88
2023-03-17T20:40:49.305Z,7.07
2023-03-17T20:43:16.269Z,6.25
2023-03-17T20:45:43.473Z,6.40
2023-03-17T20:48:11.179Z,6.60
2023-03-17T20:50:38.775Z,7.00
2023-03-17T20:53:05.533Z,7.55
2023-03-17T20:55:32.358Z,6.47
2023-03-17T20:57:59.865Z,7.80
2023-03-17T21:00:26.973Z,5.80
2023-03-17T21:02:53.890Z,6.28
2023-03-17T21:05:23.239Z,4.72
2023-03-17T21:07:50.578Z,5.68
2023-03-17T21:10:18.091Z,5.57
2023-03-17T21:12:44.896Z,7.28
2023-03-17T21:15:13.020Z,6.07
2023-03-17T21:17:40.144Z,7.18
2023-03-17T21:20:07.565Z,5.88
2023-03-17T21:22:36.186Z,5.70
2023-03-17T21:25:04.507Z,5.80
2023-03-17T21:27:31.470Z,5.78
2023-03-17T21:29:58.494Z,5.40
2023-03-17T21:32:25.712Z,5.75
2023-03-17T21:34:54.251Z,5.63
2023-03-17T21:37:21.373Z,6.32
2023-03-17T21:39:48.503Z,5.72
2023-03-17T21:42:15.326Z,4.85
2023-03-17T21:44:42.234Z,5.97
2023-03-17T21:47:09.097Z,6.93
2023-03-17T21:49:35.956Z,6.03
2023-03-17T21:52:02.660Z,8.75
2023-03-17T21:54:30.519Z,6.40
2023-03-17T21:56:57.239Z,9.70
2023-03-17T21:59:24.882Z,5.53
2023-03-17T22:01:53.068Z,6.13
2023-03-17T22:04:19.893Z,5.05
2023-03-17T22:06:46.674Z,5.72
2023-03-17T22:09:15.088Z,5.93
2023-03-17T22:11:45.495Z,4.78
2023-03-17T22:14:13.383Z,5.68
2023-03-17T22:16:40.371Z,5.28
2023-03-17T22:19:07.130Z,6.07
2023-03-17T22:21:33.851Z,4.82
2023-03-17T22:24:00.616Z,4.22
2023-03-17T22:26:28.564Z,5.63
2023-03-17T22:28:55.361Z,4.70
2023-03-17T22:31:27.108Z,5.10
2023-03-17T22:33:56.230Z,4.30
2023-03-17T22:36:23.784Z,4.25
2023-03-17T22:38:50.668Z,5.75
2023-03-17T22:41:20.827Z,4.65
2023-03-17T22:43:48.044Z,4.32
2023-03-17T22:46:15.733Z,4.53
2023-03-17T22:48:46.381Z,4.03
2023-03-17T22:51:15.829Z,4.30
2023-03-17T22:53:42.868Z,4.13
2023-03-17T22:56:10.912Z,4.18
2023-03-17T22:58:38.039Z,3.80
2023-03-17T23:01:06.496Z,5.00
2023-03-17T23:03:33.966Z,4.72
2023-03-17T23:06:01.505Z,3.97
2023-03-17T23:08:29.396Z,4.65
2023-03-17T23:10:59.358Z,3.92
2023-03-17T23:13:27.604Z,3.70
2023-03-17T23:15:54.465Z,4.15
2023-03-17T23:18:21.606Z,4.63
2023-03-17T23:20:49.419Z,4.60
2023-03-17T23:23:16.186Z,3.72
2023-03-17T23:25:43.676Z,3.80
2023-03-17T23:28:15.497Z,4.40
2023-03-17T23:30:43.456Z,4.05
2023-03-17T23:33:16.669Z,4.53
2023-03-17T23:35:43.739Z,4.97
2023-03-17T23:38:10.421Z,4.68
2023-03-17T23:40:41.670Z,4.80
2023-03-17T23:43:08.634Z,4.55
2023-03-17T23:45:36.051Z,5.05
2023-03-17T23:48:03.420Z,5.47
2023-03-17T23:50:32.038Z,4.97
2023-03-17T23:52:59.694Z,5.68
2023-03-17T23:55:26.806Z,4.18
2023-03-17T23:57:53.825Z,5.45
